createdAt,value
2017-03-04T00:00:04.898Z,8.3
2017-03-04T00:00:15.586Z,8.3
2017-03-04T00:00:25.902Z,8.3
2017-03-04T00:00:35.333Z,8.3
2017-03-04T00:00:45.290Z,8.4
2017-03-04T00:00:55.299Z,8.4
2017-03-04T00:01:05.287Z,8.4
2017-03-04T00:01:15.284Z,8.4
2017-03-04T00:01:25.276Z,8.4
2017-03-04T00:01:35.273Z,8.4
2017-03-04T00:01:45.251Z,8.4
2017-03-04T00:01:55.262Z,8.4
2017-03-04T00:02:05.278Z,8.4
2017-03-04T00:02:15.238Z,8.4
2017-03-04T00:02:25.128Z,8.4
2017-03-04T00:02:35.264Z,8.4
2017-03-04T00:02:45.247Z,8.3
2017-03-04T00:02:55.075Z,8.3
2017-03-04T00:03:05.479Z,8.3
2017-03-04T00:03:15.201Z,8.3
2017-03-04T00:03:25.206Z,8.3
2017-03-04T00:03:35.480Z,8.3
2017-03-04T00:03:44.766Z,8.3
2017-03-04T00:03:55.167Z,8.3
2017-03-04T00:04:05.163Z,8.3
2017-03-04T00:04:15.725Z,8.3
2017-03-04T00:04:25.175Z,8.3
2017-03-04T00:04:35.153Z,8.3
2017-03-04T00:04:45.143Z,8.3
2017-03-04T00:04:55.149Z,8.3
2017-03-04T00:05:04.715Z,8.3
2017-03-04T00:05:15.122Z,8.3
2017-03-04T00:05:25.130Z,8.2
2017-03-04T00:05:35.119Z,8.3
2017-03-04T00:05:45.107Z,8.2
2017-03-04T00:05:55.102Z,8.2
2017-03-04T00:06:05.101Z,8.2
2017-03-04T00:06:14.955Z,8.2
2017-03-04T00:06:25.079Z,8.2
2017-03-04T00:06:34.669Z,8.3
2017-03-04T00:06:45.071Z,8.2
2017-03-04T00:06:55.075Z,8.2
2017-03-04T00:07:05.055Z,8.2
2017-03-04T00:07:15.049Z,8.2
2017-03-04T00:07:25.295Z,8.2
2017-03-04T00:07:34.629Z,8.2
2017-03-04T00:07:45.049Z,8.3
2017-03-04T00:07:55.018Z,8.3
2017-03-04T00:08:05.043Z,8.3
2017-03-04T00:08:15.010Z,8.3
2017-03-04T00:08:25.013Z,8.3
2017-03-04T00:08:34.581Z,8.3
2017-03-04T00:08:44.584Z,8.3
2017-03-04T00:08:54.999Z,8.3
2017-03-04T00:09:04.992Z,8.3
2017-03-04T00:09:14.988Z,8.3
2017-03-04T00:09:24.972Z,8.3
2017-03-04T00:09:34.969Z,8.3
2017-03-04T00:09:44.969Z,8.3
2017-03-04T00:09:55.232Z,8.3
2017-03-04T00:10:04.953Z,8.3
2017-03-04T00:10:15.229Z,8.3
2017-03-04T00:10:25.249Z,8.3
2017-03-04T00:10:35.224Z,8.3
2017-03-04T00:10:44.922Z,8.3
2017-03-04T00:10:54.934Z,8.3
2017-03-04T00:11:04.527Z,8.3
2017-03-04T00:11:15.199Z,8.3
2017-03-04T00:11:24.934Z,8.3
2017-03-04T00:11:34.918Z,8.3
2017-03-04T00:11:44.898Z,8.3
2017-03-04T00:11:55.147Z,8.3
2017-03-04T00:12:04.460Z,8.3
2017-03-04T00:12:14.879Z,8.3
2017-03-04T00:12:24.884Z,8.2
2017-03-04T00:12:35.159Z,8.2
2017-03-04T00:12:44.837Z,8.2
2017-03-04T00:12:55.146Z,8.2
2017-03-04T00:13:04.555Z,8.3
2017-03-04T00:13:14.833Z,8.2
2017-03-04T00:13:24.842Z,8.2
2017-03-04T00:13:34.811Z,8.2
2017-03-04T00:13:44.817Z,8.2
2017-03-04T00:13:54.816Z,8.2
2017-03-04T00:14:04.379Z,8.2
2017-03-04T00:14:14.813Z,8.2
2017-03-04T00:14:24.800Z,8.2
2017-03-04T00:14:34.802Z,8.2
2017-03-04T00:14:44.766Z,8.2
2017-03-04T00:14:54.767Z,8.2
2017-03-04T00:15:04.779Z,8.2
2017-03-04T00:15:14.349Z,8.2
2017-03-04T00:15:24.749Z,8.1
2017-03-04T00:15:35.009Z,8.2
2017-03-04T00:15:44.737Z,8.2
2017-03-04T00:15:54.731Z,8.2
2017-03-04T00:16:04.763Z,8.2
2017-03-04T00:16:14.720Z,8.2
2017-03-04T00:16:24.726Z,8.2
2017-03-04T00:16:34.702Z,8.2
2017-03-04T00:16:45.012Z,8.2
2017-03-04T00:16:54.698Z,8.2
2017-03-04T00:17:04.979Z,8.2
2017-03-04T00:17:14.710Z,8.2
2017-03-04T00:17:24.675Z,8.2
2017-03-04T00:17:34.673Z,8.2
2017-03-04T00:17:44.671Z,8.2
2017-03-04T00:17:54.652Z,8.2
2017-03-04T00:18:04.653Z,8.2
2017-03-04T00:18:14.238Z,8.2
2017-03-04T00:18:24.633Z,8.2
2017-03-04T00:18:34.625Z,8.2
2017-03-04T00:18:44.639Z,8.2
2017-03-04T00:18:54.628Z,8.2
2017-03-04T00:19:04.608Z,8.2
2017-03-04T00:19:14.614Z,8.2
2017-03-04T00:19:24.191Z,8.2
2017-03-04T00:19:34.592Z,8.2
2017-03-04T00:19:44.604Z,8.2
2017-03-04T00:19:54.860Z,8.2
2017-03-04T00:20:04.589Z,8.2
2017-03-04T00:20:14.585Z,8.2
2017-03-04T00:20:24.575Z,8.2
2017-03-04T00:20:34.554Z,8.2
2017-03-04T00:20:44.560Z,8.2
2017-03-04T00:20:54.142Z,8.2
2017-03-04T00:21:04.534Z,8.2
2017-03-04T00:21:14.549Z,8.2
2017-03-04T00:21:24.837Z,8.2
2017-03-04T00:21:34.505Z,8.2
2017-03-04T00:21:44.505Z,8.2
2017-03-04T00:21:54.508Z,8.2
2017-03-04T00:22:04.490Z,8.2
2017-03-04T00:22:14.505Z,8.2
2017-03-04T00:22:24.747Z,8.2
2017-03-04T00:22:34.475Z,8.2
2017-03-04T00:22:44.480Z,8.2
2017-03-04T00:22:54.762Z,8.2
2017-03-04T00:23:04.468Z,8.2
2017-03-04T00:23:14.455Z,8.2
2017-03-04T00:23:24.459Z,8.2
2017-03-04T00:23:34.464Z,8.2
2017-03-04T00:23:44.460Z,8.2
2017-03-04T00:23:54.424Z,8.2
2017-03-04T00:24:04.453Z,8.2
2017-03-04T00:24:14.437Z,8.2
2017-03-04T00:24:24.424Z,8.2
2017-03-04T00:24:34.412Z,8.2
2017-03-04T00:24:44.416Z,8.2
2017-03-04T00:24:54.409Z,8.2
2017-03-04T00:25:04.387Z,8.2
2017-03-04T00:25:14.678Z,8.2
2017-03-04T00:25:24.375Z,8.2
2017-03-04T00:25:34.364Z,8.2
2017-03-04T00:25:44.359Z,8.2
2017-03-04T00:25:54.387Z,8.2
2017-03-04T00:26:04.351Z,8.2
2017-03-04T00:26:14.358Z,8.2
2017-03-04T00:26:24.339Z,8.2
2017-03-04T00:26:34.343Z,8.2
2017-03-04T00:26:44.326Z,8.2
2017-03-04T00:26:54.318Z,8.2
2017-03-04T00:27:04.331Z,8.2
2017-03-04T00:27:14.329Z,8.3
2017-03-04T00:27:24.562Z,8.2
2017-03-04T00:27:34.579Z,8.2
2017-03-04T00:27:43.875Z,8.3
2017-03-04T00:27:54.305Z,8.3
2017-03-04T00:28:04.273Z,8.2
2017-03-04T00:28:14.292Z,8.3
2017-03-04T00:28:24.259Z,8.3
2017-03-04T00:28:34.280Z,8.3
2017-03-04T00:28:44.244Z,8.3
2017-03-04T00:28:54.271Z,8.3
2017-03-04T00:29:03.822Z,8.3
2017-03-04T00:29:14.543Z,8.2
2017-03-04T00:29:24.226Z,8.2
2017-03-04T00:29:34.231Z,8.2
2017-03-04T00:29:44.227Z,8.2
2017-03-04T00:29:54.215Z,8.2
2017-03-04T00:30:03.393Z,8.3
2017-03-04T00:30:14.193Z,8.3
2017-03-04T00:30:24.194Z,8.3
2017-03-04T00:30:34.190Z,8.3
2017-03-04T00:30:44.045Z,8.3
2017-03-04T00:30:54.175Z,8.3
2017-03-04T00:31:03.324Z,8.3
2017-03-04T00:31:14.186Z,8.3
2017-03-04T00:31:24.159Z,8.3
2017-03-04T00:31:34.163Z,8.3
2017-03-04T00:31:44.172Z,8.3
2017-03-04T00:31:54.124Z,8.3
2017-03-04T00:32:04.418Z,8.3
2017-03-04T00:32:13.987Z,8.3
2017-03-04T00:32:23.983Z,8.3
2017-03-04T00:32:33.964Z,8.3
2017-03-04T00:32:44.393Z,8.3
2017-03-04T00:32:54.094Z,8.3
2017-03-04T00:33:04.112Z,8.3
2017-03-04T00:33:14.085Z,8.3
2017-03-04T00:33:24.075Z,8.3
2017-03-04T00:33:34.073Z,8.3
2017-03-04T00:33:44.064Z,8.3
2017-03-04T00:33:54.066Z,8.3
2017-03-04T00:34:03.649Z,8.3
2017-03-04T00:34:14.079Z,8.3
2017-03-04T00:34:23.902Z,8.3
2017-03-04T00:34:34.051Z,8.3
2017-03-04T00:34:44.021Z,8.3
2017-03-04T00:34:54.034Z,8.3
2017-03-04T00:35:04.045Z,8.3
2017-03-04T00:35:14.004Z,8.3
2017-03-04T00:35:24.016Z,8.3
2017-03-04T00:35:34.037Z,8.3
2017-03-04T00:35:44.293Z,8.3
2017-03-04T00:35:53.994Z,8.3
2017-03-04T00:36:03.572Z,8.3
2017-03-04T00:36:13.998Z,8.3
2017-03-04T00:36:23.971Z,8.3
2017-03-04T00:36:33.968Z,8.3
2017-03-04T00:36:43.956Z,8.3
2017-03-04T00:36:53.945Z,8.3
2017-03-04T00:37:03.554Z,8.3
2017-03-04T00:37:13.941Z,8.3
2017-03-04T00:37:23.866Z,8.3
2017-03-04T00:37:33.951Z,8.3
2017-03-04T00:37:43.907Z,8.3
2017-03-04T00:37:53.911Z,8.3
2017-03-04T00:38:03.904Z,8.3
2017-03-04T00:38:13.480Z,8.3
2017-03-04T00:38:23.899Z,8.3
2017-03-04T00:38:33.746Z,8.3
2017-03-04T00:38:43.880Z,8.3
2017-03-04T00:38:54.165Z,8.3
2017-03-04T00:39:03.884Z,8.3
2017-03-04T00:39:13.882Z,8.3
2017-03-04T00:39:23.860Z,8.3
2017-03-04T00:39:33.857Z,8.3
2017-03-04T00:39:44.140Z,8.3
2017-03-04T00:39:53.844Z,8.2
2017-03-04T00:40:03.838Z,8.2
2017-03-04T00:40:14.103Z,8.2
2017-03-04T00:40:23.841Z,8.2
2017-03-04T00:40:33.842Z,8.2
2017-03-04T00:40:43.805Z,8.2
2017-03-04T00:40:53.819Z,8.2
2017-03-04T00:41:03.807Z,8.2
2017-03-04T00:41:13.789Z,8.1
2017-03-04T00:41:23.783Z,8.1
2017-03-04T00:41:34.341Z,8.1
2017-03-04T00:41:44.059Z,8.1
2017-03-04T00:41:53.763Z,8.1
2017-03-04T00:42:03.751Z,8.1
2017-03-04T00:42:13.371Z,8.1
2017-03-04T00:42:23.317Z,8.1
2017-03-04T00:42:33.747Z,8.1
2017-03-04T00:42:43.735Z,8.1
2017-03-04T00:42:53.729Z,8.1
2017-03-04T00:43:04.015Z,8.1
2017-03-04T00:43:13.993Z,8.1
2017-03-04T00:43:23.706Z,8
2017-03-04T00:43:33.695Z,8
2017-03-04T00:43:43.697Z,8
2017-03-04T00:43:53.278Z,8
2017-03-04T00:44:03.267Z,8
2017-03-04T00:44:13.672Z,8
2017-03-04T00:44:23.684Z,8
2017-03-04T00:44:33.660Z,8
2017-03-04T00:44:43.672Z,8
2017-03-04T00:44:53.658Z,8
2017-03-04T00:45:03.372Z,8
2017-03-04T00:45:13.646Z,8
2017-03-04T00:45:23.635Z,8
2017-03-04T00:45:33.905Z,8
2017-03-04T00:45:43.629Z,8
2017-03-04T00:45:53.897Z,8
2017-03-04T00:46:03.469Z,8
2017-03-04T00:46:13.605Z,8
2017-03-04T00:46:23.593Z,7.9
2017-03-04T00:46:33.586Z,7.9
2017-03-04T00:46:43.586Z,7.9
2017-03-04T00:46:53.868Z,8
2017-03-04T00:47:03.583Z,8
2017-03-04T00:47:13.567Z,8
2017-03-04T00:47:23.298Z,8
2017-03-04T00:47:33.138Z,8
2017-03-04T00:47:43.548Z,8
2017-03-04T00:47:53.559Z,7.9
2017-03-04T00:48:03.816Z,7.9
2017-03-04T00:48:13.527Z,7.9
2017-03-04T00:48:23.543Z,7.9
2017-03-04T00:48:33.516Z,7.9
2017-03-04T00:48:43.091Z,7.9
2017-03-04T00:48:53.512Z,7.9
2017-03-04T00:49:03.483Z,7.9
2017-03-04T00:49:14.053Z,7.9
2017-03-04T00:49:23.486Z,7.9
2017-03-04T00:49:33.486Z,7.9
2017-03-04T00:49:43.472Z,7.9
2017-03-04T00:49:53.498Z,7.9
2017-03-04T00:50:03.461Z,7.9
2017-03-04T00:50:13.446Z,7.9
2017-03-04T00:50:23.452Z,7.9
2017-03-04T00:50:33.439Z,7.9
2017-03-04T00:50:43.429Z,7.9
2017-03-04T00:50:53.439Z,7.9
2017-03-04T00:51:03.436Z,7.9
2017-03-04T00:51:13.419Z,7.9
2017-03-04T00:51:23.406Z,7.9
2017-03-04T00:51:33.686Z,7.8
2017-03-04T00:51:43.401Z,7.8
2017-03-04T00:51:53.384Z,7.8
2017-03-04T00:52:03.393Z,7.8
2017-03-04T00:52:13.377Z,7.8
2017-03-04T00:52:23.905Z,7.8
2017-03-04T00:52:33.367Z,7.8
2017-03-04T00:52:43.397Z,7.8
2017-03-04T00:52:52.929Z,7.8
2017-03-04T00:53:03.364Z,7.8
2017-03-04T00:53:13.372Z,7.8
2017-03-04T00:53:23.348Z,7.8
2017-03-04T00:53:33.324Z,7.8
2017-03-04T00:53:43.321Z,7.8
2017-03-04T00:53:53.321Z,7.7
2017-03-04T00:54:03.311Z,7.7
2017-03-04T00:54:13.299Z,7.7
2017-03-04T00:54:23.583Z,7.7
2017-03-04T00:54:33.283Z,7.7
2017-03-04T00:54:43.300Z,7.7
2017-03-04T00:54:53.281Z,7.7
2017-03-04T00:55:02.902Z,7.7
2017-03-04T00:55:13.269Z,7.7
2017-03-04T00:55:22.849Z,7.7
2017-03-04T00:55:33.259Z,7.7
2017-03-04T00:55:42.837Z,7.7
2017-03-04T00:55:53.236Z,7.7
2017-03-04T00:56:02.814Z,7.7
2017-03-04T00:56:13.233Z,7.7
2017-03-04T00:56:23.229Z,7.6
2017-03-04T00:56:33.232Z,7.6
2017-03-04T00:56:43.506Z,7.6
2017-03-04T00:56:52.800Z,7.6
2017-03-04T00:57:03.193Z,7.6
2017-03-04T00:57:13.185Z,7.6
2017-03-04T00:57:22.594Z,7.6
2017-03-04T00:57:33.180Z,7.6
2017-03-04T00:57:43.168Z,7.6
2017-03-04T00:57:52.757Z,7.6
2017-03-04T00:58:03.160Z,7.6
2017-03-04T00:58:13.165Z,7.6
2017-03-04T00:58:23.161Z,7.6
2017-03-04T00:58:33.144Z,7.6
2017-03-04T00:58:43.445Z,7.6
2017-03-04T00:58:53.152Z,7.6
2017-03-04T00:59:02.707Z,7.6
2017-03-04T00:59:13.413Z,7.6
2017-03-04T00:59:23.143Z,7.6
2017-03-04T00:59:33.103Z,7.6
2017-03-04T00:59:43.395Z,7.6
2017-03-04T00:59:52.249Z,7.6
2017-03-04T01:00:02.671Z,7.6
2017-03-04T01:00:13.127Z,7.6
2017-03-04T01:00:23.098Z,7.6
2017-03-04T01:00:33.067Z,7.6
2017-03-04T01:00:43.055Z,7.6
2017-03-04T01:00:53.073Z,7.6
2017-03-04T01:01:03.081Z,7.6
2017-03-04T01:01:13.069Z,7.5
2017-03-04T01:01:23.053Z,7.5
2017-03-04T01:01:33.032Z,7.5
2017-03-04T01:01:43.297Z,7.5
2017-03-04T01:01:53.011Z,7.5
2017-03-04T01:02:02.594Z,7.5
2017-03-04T01:02:13.019Z,7.5
2017-03-04T01:02:23.297Z,7.5
2017-03-04T01:02:33.021Z,7.5
2017-03-04T01:02:42.995Z,7.5
2017-03-04T01:02:53.005Z,7.5
2017-03-04T01:03:02.982Z,7.5
2017-03-04T01:03:12.959Z,7.5
2017-03-04T01:03:22.965Z,7.5
2017-03-04T01:03:32.958Z,7.5
2017-03-04T01:03:42.956Z,7.5
2017-03-04T01:03:53.236Z,7.5
2017-03-04T01:04:02.529Z,7.5
2017-03-04T01:04:12.923Z,7.5
2017-03-04T01:04:22.949Z,7.5
2017-03-04T01:04:32.929Z,7.5
2017-03-04T01:04:42.490Z,7.5
2017-03-04T01:04:52.907Z,7.6
2017-03-04T01:05:02.639Z,7.6
2017-03-04T01:05:12.912Z,7.6
2017-03-04T01:05:22.900Z,7.6
2017-03-04T01:05:33.147Z,7.6
2017-03-04T01:05:42.894Z,7.6
2017-03-04T01:05:52.865Z,7.6
2017-03-04T01:06:03.144Z,7.6
2017-03-04T01:06:12.851Z,7.6
2017-03-04T01:06:22.846Z,7.6
2017-03-04T01:06:32.831Z,7.6
2017-03-04T01:06:42.837Z,7.6
2017-03-04T01:06:52.409Z,7.6
2017-03-04T01:07:02.832Z,7.6
2017-03-04T01:07:12.861Z,7.6
2017-03-04T01:07:23.106Z,7.6
2017-03-04T01:07:32.382Z,7.6
2017-03-04T01:07:42.812Z,7.6
2017-03-04T01:07:52.371Z,7.6
2017-03-04T01:08:02.531Z,7.6
2017-03-04T01:08:13.058Z,7.6
2017-03-04T01:08:22.793Z,7.6
2017-03-04T01:08:32.821Z,7.6
2017-03-04T01:08:42.764Z,7.7
2017-03-04T01:08:52.346Z,7.6
2017-03-04T01:09:02.751Z,7.6
2017-03-04T01:09:13.021Z,7.6
2017-03-04T01:09:22.745Z,7.6
2017-03-04T01:09:32.308Z,7.6
2017-03-04T01:09:42.729Z,7.6
2017-03-04T01:09:52.716Z,7.6
2017-03-04T01:10:02.720Z,7.6
2017-03-04T01:10:12.708Z,7.6
2017-03-04T01:10:22.709Z,7.6
2017-03-04T01:10:32.696Z,7.6
2017-03-04T01:10:42.688Z,7.6
2017-03-04T01:10:52.686Z,7.6
2017-03-04T01:11:02.675Z,7.6
2017-03-04T01:11:12.254Z,7.6
2017-03-04T01:11:22.667Z,7.6
2017-03-04T01:11:32.657Z,7.6
2017-03-04T01:11:42.659Z,7.6
2017-03-04T01:11:52.648Z,7.6
2017-03-04T01:12:02.226Z,7.6
2017-03-04T01:12:12.907Z,7.6
2017-03-04T01:12:22.900Z,7.6
2017-03-04T01:12:32.631Z,7.6
2017-03-04T01:12:42.202Z,7.6
2017-03-04T01:12:52.607Z,7.6
2017-03-04T01:13:02.910Z,7.6
2017-03-04T01:13:12.592Z,7.6
2017-03-04T01:13:22.590Z,7.6
2017-03-04T01:13:32.613Z,7.6
2017-03-04T01:13:42.566Z,7.6
2017-03-04T01:13:52.155Z,7.6
2017-03-04T01:14:02.567Z,7.7
2017-03-04T01:14:12.560Z,7.6
2017-03-04T01:14:23.113Z,7.6
2017-03-04T01:14:32.837Z,7.6
2017-03-04T01:14:42.550Z,7.6
2017-03-04T01:14:52.556Z,7.6
2017-03-04T01:15:02.538Z,7.6
2017-03-04T01:15:12.523Z,7.6
2017-03-04T01:15:22.521Z,7.6
2017-03-04T01:15:32.528Z,7.6
2017-03-04T01:15:42.078Z,7.6
2017-03-04T01:15:52.495Z,7.6
2017-03-04T01:16:02.495Z,7.6
2017-03-04T01:16:12.499Z,7.6
2017-03-04T01:16:22.488Z,7.6
2017-03-04T01:16:32.073Z,7.6
2017-03-04T01:16:42.748Z,7.6
2017-03-04T01:16:52.460Z,7.6
2017-03-04T01:17:02.449Z,7.6
2017-03-04T01:17:12.448Z,7.6
2017-03-04T01:17:22.963Z,7.6
2017-03-04T01:17:32.430Z,7.5
2017-03-04T01:17:42.448Z,7.5
2017-03-04T01:17:52.411Z,7.5
2017-03-04T01:18:01.990Z,7.5
2017-03-04T01:18:12.410Z,7.6
2017-03-04T01:18:22.414Z,7.6
2017-03-04T01:18:32.416Z,7.6
2017-03-04T01:18:42.407Z,7.6
2017-03-04T01:18:52.375Z,7.5
2017-03-04T01:19:01.961Z,7.5
2017-03-04T01:19:12.368Z,7.5
2017-03-04T01:19:22.363Z,7.5
2017-03-04T01:19:32.360Z,7.5
2017-03-04T01:19:42.348Z,7.5
2017-03-04T01:19:52.352Z,7.5
2017-03-04T01:20:02.350Z,7.5
2017-03-04T01:20:12.328Z,7.5
2017-03-04T01:20:22.346Z,7.5
2017-03-04T01:20:32.312Z,7.5
2017-03-04T01:20:42.591Z,7.5
2017-03-04T01:20:51.891Z,7.5
2017-03-04T01:21:02.322Z,7.5
2017-03-04T01:21:12.295Z,7.5
2017-03-04T01:21:22.285Z,7.5
2017-03-04T01:21:32.271Z,7.5
2017-03-04T01:21:42.288Z,7.5
2017-03-04T01:21:51.869Z,7.5
2017-03-04T01:22:02.590Z,7.4
2017-03-04T01:22:12.259Z,7.4
2017-03-04T01:22:22.253Z,7.4
2017-03-04T01:22:32.260Z,7.4
2017-03-04T01:22:42.248Z,7.4
2017-03-04T01:22:52.223Z,7.4
2017-03-04T01:23:02.231Z,7.4
2017-03-04T01:23:12.495Z,7.4
2017-03-04T01:23:21.801Z,7.4
2017-03-04T01:23:32.212Z,7.4
2017-03-04T01:23:42.212Z,7.4
2017-03-04T01:23:52.193Z,7.3
2017-03-04T01:24:02.207Z,7.3
2017-03-04T01:24:11.905Z,7.3
2017-03-04T01:24:22.173Z,7.3
2017-03-04T01:24:32.453Z,7.3
2017-03-04T01:24:42.174Z,7.3
2017-03-04T01:24:52.183Z,7.3
2017-03-04T01:25:02.445Z,7.3
2017-03-04T01:25:12.160Z,7.3
2017-03-04T01:25:22.136Z,7.3
2017-03-04T01:25:32.132Z,7.3
2017-03-04T01:25:42.143Z,7.3
2017-03-04T01:25:51.701Z,7.3
2017-03-04T01:26:02.114Z,7.3
2017-03-04T01:26:12.111Z,7.3
2017-03-04T01:26:21.690Z,7.3
2017-03-04T01:26:32.111Z,7.3
2017-03-04T01:26:42.099Z,7.3
2017-03-04T01:26:52.090Z,7.3
2017-03-04T01:27:02.077Z,7.3
2017-03-04T01:27:12.073Z,7.3
2017-03-04T01:27:21.646Z,7.3
2017-03-04T01:27:32.069Z,7.3
2017-03-04T01:27:42.069Z,7.3
2017-03-04T01:27:52.056Z,7.3
2017-03-04T01:28:02.067Z,7.3
2017-03-04T01:28:12.051Z,7.3
2017-03-04T01:28:22.019Z,7.3
2017-03-04T01:28:32.016Z,7.3
2017-03-04T01:28:42.037Z,7.2
2017-03-04T01:28:52.024Z,7.2
2017-03-04T01:29:02.013Z,7.2
2017-03-04T01:29:11.994Z,7.2
2017-03-04T01:29:21.987Z,7.2
2017-03-04T01:29:32.256Z,7.2
2017-03-04T01:29:41.972Z,7.2
2017-03-04T01:29:51.982Z,7.2
2017-03-04T01:30:01.966Z,7.2
2017-03-04T01:30:11.966Z,7.2
2017-03-04T01:30:21.950Z,7.2
2017-03-04T01:30:31.958Z,7.2
2017-03-04T01:30:41.936Z,7.2
2017-03-04T01:30:51.934Z,7.2
2017-03-04T01:31:01.921Z,7.2
2017-03-04T01:31:11.924Z,7.2
2017-03-04T01:31:21.510Z,7.2
2017-03-04T01:31:31.909Z,7.2
2017-03-04T01:31:41.899Z,7.2
2017-03-04T01:31:51.492Z,7.2
2017-03-04T01:32:01.475Z,7.2
2017-03-04T01:32:11.875Z,7.2
2017-03-04T01:32:22.120Z,7.2
2017-03-04T01:32:31.862Z,7.2
2017-03-04T01:32:42.184Z,7.2
2017-03-04T01:32:51.862Z,7.2
2017-03-04T01:33:01.849Z,7.2
2017-03-04T01:33:11.863Z,7.2
2017-03-04T01:33:21.420Z,7.2
2017-03-04T01:33:31.841Z,7.1
2017-03-04T01:33:41.834Z,7.1
2017-03-04T01:33:51.818Z,7.1
2017-03-04T01:34:01.816Z,7.1
2017-03-04T01:34:11.808Z,7.1
2017-03-04T01:34:21.814Z,7.1
2017-03-04T01:34:31.806Z,7.1
2017-03-04T01:34:41.795Z,7.1
2017-03-04T01:34:51.786Z,7.1
2017-03-04T01:35:01.778Z,7.1
2017-03-04T01:35:11.781Z,7.1
2017-03-04T01:35:22.050Z,7.1
2017-03-04T01:35:31.750Z,7.1
2017-03-04T01:35:41.748Z,7
2017-03-04T01:35:51.751Z,7
2017-03-04T01:36:01.757Z,7
2017-03-04T01:36:11.743Z,7
2017-03-04T01:36:21.730Z,7
2017-03-04T01:36:31.721Z,7
2017-03-04T01:36:41.713Z,7
2017-03-04T01:36:51.719Z,7
2017-03-04T01:37:01.565Z,7
2017-03-04T01:37:11.701Z,7
2017-03-04T01:37:21.975Z,7
2017-03-04T01:37:31.688Z,7
2017-03-04T01:37:41.680Z,7
2017-03-04T01:37:51.685Z,7
2017-03-04T01:38:01.956Z,7
2017-03-04T01:38:11.679Z,7
2017-03-04T01:38:21.662Z,7
2017-03-04T01:38:31.661Z,7
2017-03-04T01:38:41.638Z,7
2017-03-04T01:38:51.634Z,7
2017-03-04T01:39:01.648Z,7
2017-03-04T01:39:11.612Z,7
2017-03-04T01:39:21.200Z,7
2017-03-04T01:39:31.604Z,7
2017-03-04T01:39:41.601Z,7
2017-03-04T01:39:51.592Z,7
2017-03-04T01:40:01.878Z,6.9
2017-03-04T01:40:11.588Z,6.9
2017-03-04T01:40:21.157Z,6.9
2017-03-04T01:40:31.569Z,6.9
2017-03-04T01:40:41.574Z,6.9
2017-03-04T01:40:51.571Z,7
2017-03-04T01:41:01.136Z,7
2017-03-04T01:41:11.411Z,7
2017-03-04T01:41:21.128Z,7
2017-03-04T01:41:31.527Z,7
2017-03-04T01:41:41.537Z,7
2017-03-04T01:41:51.104Z,7
2017-03-04T01:42:01.524Z,7
2017-03-04T01:42:11.519Z,7
2017-03-04T01:42:20.674Z,6.9
2017-03-04T01:42:31.512Z,6.9
2017-03-04T01:42:41.770Z,6.9
2017-03-04T01:42:51.065Z,6.9
2017-03-04T01:43:01.071Z,6.9
2017-03-04T01:43:11.481Z,6.9
2017-03-04T01:43:21.063Z,6.9
2017-03-04T01:43:31.466Z,6.9
2017-03-04T01:43:41.441Z,6.9
2017-03-04T01:43:51.467Z,6.9
2017-03-04T01:44:01.023Z,6.9
2017-03-04T01:44:11.434Z,6.9
2017-03-04T01:44:20.585Z,6.9
2017-03-04T01:44:31.453Z,6.9
2017-03-04T01:44:41.424Z,6.9
2017-03-04T01:44:51.418Z,6.9
2017-03-04T01:45:01.427Z,6.9
2017-03-04T01:45:11.404Z,6.9
2017-03-04T01:45:20.968Z,6.9
2017-03-04T01:45:31.379Z,6.9
2017-03-04T01:45:41.653Z,6.9
2017-03-04T01:45:51.369Z,6.9
2017-03-04T01:46:00.960Z,6.9
2017-03-04T01:46:11.370Z,6.9
2017-03-04T01:46:21.653Z,6.9
2017-03-04T01:46:31.367Z,6.9
2017-03-04T01:46:41.350Z,6.9
2017-03-04T01:46:51.640Z,6.9
2017-03-04T01:47:01.330Z,6.9
2017-03-04T01:47:11.317Z,6.9
2017-03-04T01:47:21.333Z,6.9
2017-03-04T01:47:31.333Z,6.9
2017-03-04T01:47:41.307Z,6.9
2017-03-04T01:47:51.297Z,6.9
2017-03-04T01:48:01.301Z,6.9
2017-03-04T01:48:11.281Z,6.9
2017-03-04T01:48:21.586Z,6.9
2017-03-04T01:48:31.555Z,6.9
2017-03-04T01:48:41.278Z,6.9
2017-03-04T01:48:51.254Z,6.9
2017-03-04T01:49:01.280Z,6.8
2017-03-04T01:49:11.266Z,6.8
2017-03-04T01:49:21.537Z,6.8
2017-03-04T01:49:31.263Z,6.8
2017-03-04T01:49:41.511Z,6.8
2017-03-04T01:49:51.257Z,6.8
2017-03-04T01:50:01.528Z,6.8
2017-03-04T01:50:10.804Z,6.8
2017-03-04T01:50:21.201Z,6.8
2017-03-04T01:50:31.192Z,6.8
2017-03-04T01:50:40.929Z,6.8
2017-03-04T01:50:51.181Z,6.8
2017-03-04T01:51:01.458Z,6.8
2017-03-04T01:51:11.195Z,6.8
2017-03-04T01:51:20.758Z,6.8
2017-03-04T01:51:31.157Z,6.8
2017-03-04T01:51:41.152Z,6.8
2017-03-04T01:51:51.144Z,6.8
2017-03-04T01:52:01.170Z,6.8
2017-03-04T01:52:11.144Z,6.8
2017-03-04T01:52:21.127Z,6.8
2017-03-04T01:52:31.706Z,6.8
2017-03-04T01:52:41.108Z,6.8
2017-03-04T01:52:51.378Z,6.8
2017-03-04T01:53:01.104Z,6.8
2017-03-04T01:53:11.086Z,6.8
2017-03-04T01:53:21.092Z,6.8
2017-03-04T01:53:31.093Z,6.8
2017-03-04T01:53:41.097Z,6.8
2017-03-04T01:53:51.097Z,6.8
2017-03-04T01:54:01.078Z,6.8
2017-03-04T01:54:11.071Z,6.8
2017-03-04T01:54:21.085Z,6.8
2017-03-04T01:54:31.043Z,6.8
2017-03-04T01:54:41.054Z,6.8
2017-03-04T01:54:51.039Z,6.8
2017-03-04T01:55:01.316Z,6.8
2017-03-04T01:55:11.035Z,6.8
2017-03-04T01:55:20.610Z,6.8
2017-03-04T01:55:31.302Z,6.8
2017-03-04T01:55:41.018Z,6.8
2017-03-04T01:55:51.015Z,6.8
2017-03-04T01:56:01.329Z,6.8
2017-03-04T01:56:10.982Z,6.8
2017-03-04T01:56:20.589Z,6.8
2017-03-04T01:56:30.969Z,6.8
2017-03-04T01:56:40.984Z,6.8
2017-03-04T01:56:50.963Z,6.8
2017-03-04T01:57:00.953Z,6.8
2017-03-04T01:57:11.245Z,6.8
2017-03-04T01:57:20.527Z,6.8
2017-03-04T01:57:30.104Z,6.8
2017-03-04T01:57:40.927Z,6.8
2017-03-04T01:57:50.919Z,6.8
2017-03-04T01:58:00.496Z,6.8
2017-03-04T01:58:10.911Z,6.8
2017-03-04T01:58:20.923Z,6.8
2017-03-04T01:58:30.893Z,6.8
2017-03-04T01:58:40.891Z,6.8
2017-03-04T01:58:50.893Z,6.8
2017-03-04T01:59:00.590Z,6.8
2017-03-04T01:59:10.467Z,6.8
2017-03-04T01:59:20.871Z,6.8
2017-03-04T01:59:30.853Z,6.8
2017-03-04T01:59:41.145Z,6.8
2017-03-04T01:59:50.844Z,6.7
2017-03-04T02:00:00.987Z,6.7
2017-03-04T02:00:10.840Z,6.7
2017-03-04T02:00:20.414Z,6.7
2017-03-04T02:00:30.829Z,6.7
2017-03-04T02:00:40.844Z,6.7
2017-03-04T02:00:50.817Z,6.7
2017-03-04T02:01:00.376Z,6.7
2017-03-04T02:01:10.803Z,6.7
2017-03-04T02:01:20.391Z,6.7
2017-03-04T02:01:30.370Z,6.7
2017-03-04T02:01:40.800Z,6.7
2017-03-04T02:01:50.773Z,6.7
2017-03-04T02:02:00.371Z,6.7
2017-03-04T02:02:10.756Z,6.7
2017-03-04T02:02:20.759Z,6.7
2017-03-04T02:02:31.322Z,6.7
2017-03-04T02:02:40.753Z,6.7
2017-03-04T02:02:50.736Z,6.7
2017-03-04T02:03:00.732Z,6.7
2017-03-04T02:03:10.732Z,6.7
2017-03-04T02:03:20.297Z,6.7
2017-03-04T02:03:30.722Z,6.7
2017-03-04T02:03:40.732Z,6.7
2017-03-04T02:03:50.697Z,6.7
2017-03-04T02:04:00.680Z,6.7
2017-03-04T02:04:10.687Z,6.7
2017-03-04T02:04:20.680Z,6.7
2017-03-04T02:04:30.674Z,6.7
2017-03-04T02:04:40.675Z,6.7
2017-03-04T02:04:50.675Z,6.8
2017-03-04T02:05:00.660Z,6.8
2017-03-04T02:05:10.928Z,6.8
2017-03-04T02:05:20.648Z,6.8
2017-03-04T02:05:30.653Z,6.7
2017-03-04T02:05:40.641Z,6.7
2017-03-04T02:05:50.619Z,6.7
2017-03-04T02:06:00.620Z,6.7
2017-03-04T02:06:10.622Z,6.7
2017-03-04T02:06:20.899Z,6.7
2017-03-04T02:06:30.883Z,6.7
2017-03-04T02:06:40.598Z,6.7
2017-03-04T02:06:50.593Z,6.7
2017-03-04T02:07:00.881Z,6.7
2017-03-04T02:07:10.605Z,6.7
2017-03-04T02:07:20.568Z,6.7
2017-03-04T02:07:30.577Z,6.7
2017-03-04T02:07:40.551Z,6.7
2017-03-04T02:07:50.557Z,6.7
2017-03-04T02:08:00.119Z,6.7
2017-03-04T02:08:10.541Z,6.7
2017-03-04T02:08:20.517Z,6.7
2017-03-04T02:08:30.512Z,6.7
2017-03-04T02:08:40.525Z,6.7
2017-03-04T02:08:50.505Z,6.7
2017-03-04T02:09:00.508Z,6.7
2017-03-04T02:09:10.502Z,6.7
2017-03-04T02:09:20.501Z,6.7
2017-03-04T02:09:30.494Z,6.7
2017-03-04T02:09:40.500Z,6.7
2017-03-04T02:09:50.496Z,6.7
2017-03-04T02:10:00.458Z,6.7
2017-03-04T02:10:10.471Z,6.7
2017-03-04T02:10:20.459Z,6.7
2017-03-04T02:10:30.457Z,6.7
2017-03-04T02:10:40.441Z,6.7
2017-03-04T02:10:50.442Z,6.7
2017-03-04T02:11:00.454Z,6.7
2017-03-04T02:11:10.420Z,6.7
2017-03-04T02:11:20.408Z,6.7
2017-03-04T02:11:30.407Z,6.7
2017-03-04T02:11:40.404Z,6.7
2017-03-04T02:11:50.398Z,6.7
2017-03-04T02:12:00.401Z,6.7
2017-03-04T02:12:10.378Z,6.7
2017-03-04T02:12:20.636Z,6.7
2017-03-04T02:12:30.364Z,6.7
2017-03-04T02:12:40.378Z,6.7
2017-03-04T02:12:49.939Z,6.7
2017-03-04T02:12:59.927Z,6.7
2017-03-04T02:13:10.340Z,6.7
2017-03-04T02:13:20.347Z,6.7
2017-03-04T02:13:30.347Z,6.7
2017-03-04T02:13:40.330Z,6.7
2017-03-04T02:13:50.317Z,6.7
2017-03-04T02:13:59.889Z,6.7
2017-03-04T02:14:10.306Z,6.7
2017-03-04T02:14:20.305Z,6.7
2017-03-04T02:14:30.591Z,6.7
2017-03-04T02:14:40.301Z,6.7
2017-03-04T02:14:50.275Z,6.7
2017-03-04T02:15:00.545Z,6.7
2017-03-04T02:15:10.268Z,6.8
2017-03-04T02:15:20.540Z,6.8
2017-03-04T02:15:30.257Z,6.8
2017-03-04T02:15:40.585Z,6.8
2017-03-04T02:15:50.249Z,6.8
2017-03-04T02:15:59.823Z,6.8
2017-03-04T02:16:09.811Z,6.8
2017-03-04T02:16:20.217Z,6.8
2017-03-04T02:16:30.224Z,6.7
2017-03-04T02:16:40.209Z,6.7
2017-03-04T02:16:50.208Z,6.7
2017-03-04T02:17:00.209Z,6.7
2017-03-04T02:17:10.193Z,6.7
2017-03-04T02:17:20.036Z,6.7
2017-03-04T02:17:29.784Z,6.7
2017-03-04T02:17:40.180Z,6.7
2017-03-04T02:17:50.183Z,6.7
2017-03-04T02:18:00.150Z,6.7
2017-03-04T02:18:10.185Z,6.7
2017-03-04T02:18:20.178Z,6.7